createdAt,value
2022-09-18T00:01:13.994Z,7.30
2022-09-18T00:03:16.450Z,7.40
2022-09-18T00:05:18.269Z,7.30
2022-09-18T00:07:20.515Z,7.30
2022-09-18T00:09:22.570Z,7.30
2022-09-18T00:11:25.861Z,7.30
2022-09-18T00:13:27.490Z,7.30
2022-09-18T00:15:29.129Z,7.30
2022-09-18T00:17:30.769Z,7.30
2022-09-18T00:19:32.434Z,7.30
2022-09-18T00:21:37.185Z,7.30
2022-09-18T00:23:39.346Z,7.30
2022-09-18T00:25:41.716Z,7.30
2022-09-18T00:27:43.333Z,7.40
2022-09-18T00:29:45.038Z,7.40
2022-09-18T00:31:46.834Z,7.40
2022-09-18T00:33:48.577Z,7.40
2022-09-18T00:35:50.206Z,7.40
2022-09-18T00:37:51.961Z,7.40
2022-09-18T00:39:53.787Z,7.40
2022-09-18T00:41:56.761Z,7.40
2022-09-18T00:44:35.640Z,7.40
2022-09-18T00:46:37.949Z,7.30
2022-09-18T00:48:48.665Z,7.30
2022-09-18T00:50:50.983Z,7.30
2022-09-18T00:52:57.839Z,7.40
2022-09-18T00:55:07.732Z,7.30
2022-09-18T00:57:13.652Z,7.30
2022-09-18T00:59:37.421Z,7.40
2022-09-18T01:01:39.075Z,7.30
2022-09-18T01:03:40.730Z,7.30
2022-09-18T01:06:03.965Z,7.30
2022-09-18T01:08:24.561Z,7.30
2022-09-18T01:10:56.353Z,7.30
2022-09-18T01:13:43.554Z,7.30
2022-09-18T01:16:01.903Z,7.30
2022-09-18T01:18:09.078Z,7.30
2022-09-18T01:20:34.483Z,7.30
2022-09-18T01:22:42.175Z,7.30
2022-09-18T01:24:46.442Z,7.30
2022-09-18T01:27:06.154Z,7.30
2022-09-18T01:29:30.735Z,7.30
2022-09-18T01:31:39.304Z,7.40
2022-09-18T01:33:58.659Z,7.40
2022-09-18T01:36:04.675Z,7.40
2022-09-18T01:38:29.414Z,7.30
2022-09-18T01:40:42.474Z,7.40
2022-09-18T01:42:47.836Z,7.40
2022-09-18T01:44:54.184Z,7.40
2022-09-18T01:46:59.527Z,7.40
2022-09-18T01:49:08.440Z,7.30
2022-09-18T01:51:21.347Z,7.30
2022-09-18T01:53:34.872Z,7.30
2022-09-18T01:55:38.657Z,7.30
2022-09-18T01:57:58.494Z,7.20
2022-09-18T02:00:09.923Z,7.20
2022-09-18T02:02:20.658Z,7.20
2022-09-18T02:04:27.630Z,7.20
2022-09-18T02:06:34.373Z,7.10
2022-09-18T02:08:44.185Z,7.00
2022-09-18T02:10:56.136Z,7.00
2022-09-18T02:12:59.838Z,7.00
2022-09-18T02:15:09.333Z,7.00
2022-09-18T02:17:18.926Z,7.00
2022-09-18T02:19:30.335Z,6.90
2022-09-18T02:21:32.977Z,6.90
2022-09-18T02:23:36.033Z,6.90
2022-09-18T02:25:48.303Z,6.90
2022-09-18T02:27:51.748Z,6.90
2022-09-18T02:29:55.141Z,7.00
2022-09-18T02:31:59.782Z,6.90
2022-09-18T02:34:01.828Z,7.00
2022-09-18T02:36:27.487Z,7.00
2022-09-18T02:38:44.089Z,7.00
2022-09-18T02:41:12.796Z,7.00
2022-09-18T02:43:52.486Z,7.00
2022-09-18T02:46:02.243Z,7.10
2022-09-18T02:48:28.886Z,7.10
2022-09-18T02:51:01.477Z,7.10
2022-09-18T02:53:12.935Z,7.10
2022-09-18T02:55:23.015Z,7.10
2022-09-18T02:57:48.301Z,7.10
2022-09-18T02:59:54.218Z,7.20
2022-09-18T03:01:57.969Z,7.10
2022-09-18T03:04:05.411Z,7.20
2022-09-18T03:06:07.989Z,7.20
2022-09-18T03:08:09.801Z,7.20
2022-09-18T03:10:11.925Z,7.20
2022-09-18T03:12:14.121Z,7.20
2022-09-18T03:14:16.296Z,7.30
2022-09-18T03:16:18.477Z,7.30
2022-09-18T03:18:20.379Z,7.30
2022-09-18T03:20:22.058Z,7.30
2022-09-18T03:22:23.690Z,7.30
2022-09-18T03:24:25.561Z,7.30
2022-09-18T03:26:27.333Z,7.30
2022-09-18T03:28:31.857Z,7.30
2022-09-18T03:30:33.960Z,7.40
2022-09-18T03:32:35.586Z,7.40
2022-09-18T03:34:37.862Z,7.40
2022-09-18T03:36:40.381Z,7.40
2022-09-18T03:38:42.526Z,7.40
2022-09-18T03:40:48.031Z,7.40
2022-09-18T03:42:50.926Z,7.40
2022-09-18T03:44:52.898Z,7.40
2022-09-18T03:46:55.191Z,7.40
2022-09-18T03:48:56.898Z,7.40
2022-09-18T03:50:58.618Z,7.40
2022-09-18T03:53:00.922Z,7.40
2022-09-18T03:55:02.749Z,7.40
2022-09-18T03:57:04.407Z,7.40
2022-09-18T03:59:06.281Z,7.40
2022-09-18T04:01:12.969Z,7.40
2022-09-18T04:03:15.492Z,7.40
2022-09-18T04:05:17.359Z,7.30
2022-09-18T04:07:19.046Z,7.40
2022-09-18T04:09:20.901Z,7.40
2022-09-18T04:11:22.573Z,7.40
2022-09-18T04:13:27.640Z,7.40
2022-09-18T04:15:29.266Z,7.40
2022-09-18T04:17:31.005Z,7.40
2022-09-18T04:19:32.624Z,7.50
2022-09-18T04:21:34.250Z,7.40
2022-09-18T04:23:35.945Z,7.40
2022-09-18T04:25:38.421Z,7.50
2022-09-18T04:27:40.033Z,7.40
2022-09-18T04:29:41.983Z,7.50
2022-09-18T04:31:43.945Z,7.50
2022-09-18T04:33:46.261Z,7.50
2022-09-18T04:35:47.898Z,7.50
2022-09-18T04:37:49.646Z,7.50
2022-09-18T04:39:51.451Z,7.50
2022-09-18T04:41:53.182Z,7.50
2022-09-18T04:43:54.852Z,7.50
2022-09-18T04:45:56.553Z,7.50
2022-09-18T04:47:58.191Z,7.50
2022-09-18T04:49:59.874Z,7.50
2022-09-18T04:52:01.738Z,7.50
2022-09-18T04:54:03.523Z,7.50
2022-09-18T04:56:05.405Z,7.50
2022-09-18T04:58:07.363Z,7.50
2022-09-18T05:00:10.000Z,7.50
2022-09-18T05:04:22.216Z,7.50
2022-09-18T05:06:24.442Z,7.50
2022-09-18T05:08:28.451Z,7.50
2022-09-18T05:10:30.581Z,7.50
2022-09-18T05:12:33.498Z,7.50
2022-09-18T05:14:35.555Z,7.50
2022-09-18T05:16:37.362Z,7.50
2022-09-18T05:18:39.083Z,7.50
2022-09-18T05:20:40.731Z,7.50
2022-09-18T05:22:49.199Z,7.50
2022-09-18T05:24:50.994Z,7.50
2022-09-18T05:26:52.632Z,7.50
2022-09-18T05:28:54.477Z,7.50
2022-09-18T05:31:02.174Z,7.50
2022-09-18T05:33:07.104Z,7.50
2022-09-18T05:35:09.024Z,7.50
2022-09-18T05:37:11.561Z,7.50
2022-09-18T05:39:17.474Z,7.50
2022-09-18T05:41:19.530Z,7.50
2022-09-18T05:43:21.149Z,7.50
2022-09-18T05:45:22.858Z,7.50
2022-09-18T05:47:24.478Z,7.50
2022-09-18T05:49:26.104Z,7.50
2022-09-18T05:51:27.906Z,7.50
2022-09-18T05:53:29.629Z,7.50
2022-09-18T05:55:32.309Z,7.50
2022-09-18T05:57:33.986Z,7.50
2022-09-18T05:59:35.642Z,7.50
2022-09-18T06:01:37.373Z,7.50
2022-09-18T06:03:39.182Z,7.50
2022-09-18T06:05:41.252Z,7.50
2022-09-18T06:07:43.169Z,7.50
2022-09-18T06:09:44.825Z,7.50
2022-09-18T06:11:46.472Z,7.50
2022-09-18T06:13:50.050Z,7.50
2022-09-18T06:15:52.372Z,7.50
2022-09-18T06:17:54.409Z,7.60
2022-09-18T06:19:56.073Z,7.60
2022-09-18T06:21:57.736Z,7.60
2022-09-18T06:23:59.402Z,7.60
2022-09-18T06:26:03.816Z,7.60
2022-09-18T06:28:06.509Z,7.60
2022-09-18T06:30:08.658Z,7.60
2022-09-18T06:32:11.285Z,7.60
2022-09-18T06:34:12.953Z,7.60
2022-09-18T06:36:14.913Z,7.60
2022-09-18T06:38:16.858Z,7.60
2022-09-18T06:40:18.953Z,7.60
2022-09-18T06:42:20.738Z,7.60
2022-09-18T06:44:22.501Z,7.60
2022-09-18T06:46:24.679Z,7.60
2022-09-18T06:48:29.499Z,7.60
2022-09-18T06:50:31.764Z,7.60
2022-09-18T06:52:33.460Z,7.70
2022-09-18T06:54:35.143Z,7.70
2022-09-18T06:56:36.838Z,7.70
2022-09-18T06:58:38.445Z,7.70
2022-09-18T07:00:40.067Z,7.70
2022-09-18T07:02:41.788Z,7.70
2022-09-18T07:04:43.462Z,7.70
2022-09-18T07:06:46.145Z,7.70
2022-09-18T07:08:48.009Z,7.70
2022-09-18T07:10:49.875Z,7.80
2022-09-18T07:12:58.617Z,7.80
2022-09-18T07:15:00.219Z,7.80
2022-09-18T07:17:01.898Z,7.80
2022-09-18T07:19:03.586Z,7.80
2022-09-18T07:21:05.739Z,7.80
2022-09-18T07:23:07.421Z,7.80
2022-09-18T07:25:10.305Z,7.80
2022-09-18T07:27:12.090Z,7.80
2022-09-18T07:29:13.729Z,7.80
2022-09-18T07:31:15.541Z,7.90
2022-09-18T07:33:17.323Z,7.80
2022-09-18T07:35:19.076Z,7.80
2022-09-18T07:37:20.705Z,7.80
2022-09-18T07:39:22.319Z,7.90
2022-09-18T07:41:23.945Z,7.90
2022-09-18T07:43:25.634Z,7.90
2022-09-18T07:45:27.390Z,7.90
2022-09-18T07:47:29.777Z,7.90
2022-09-18T07:49:32.897Z,7.90
2022-09-18T07:51:34.581Z,7.90
2022-09-18T07:53:37.568Z,8.00
2022-09-18T07:55:39.450Z,8.00
2022-09-18T07:57:41.290Z,8.00
2022-09-18T07:59:42.896Z,8.10
2022-09-18T08:01:44.664Z,8.10
2022-09-18T08:03:46.501Z,8.10
2022-09-18T08:05:48.141Z,8.10
2022-09-18T08:07:49.830Z,8.20
2022-09-18T08:12:08.738Z,8.20
2022-09-18T08:14:10.740Z,8.20
2022-09-18T08:16:13.814Z,8.30
2022-09-18T08:18:15.509Z,8.30
2022-09-18T08:20:18.070Z,8.30
2022-09-18T08:22:19.657Z,8.20
2022-09-18T08:24:21.296Z,8.30
2022-09-18T08:26:23.193Z,8.30
2022-09-18T08:28:24.873Z,8.30
2022-09-18T08:30:27.165Z,8.30
2022-09-18T08:32:28.978Z,8.30
2022-09-18T08:34:31.129Z,8.30
2022-09-18T08:36:32.819Z,8.30
2022-09-18T08:38:34.517Z,8.40
2022-09-18T08:40:59.127Z,8.50
2022-09-18T08:43:29.374Z,8.60
2022-09-18T08:46:06.535Z,8.60
2022-09-18T08:48:21.201Z,8.60
2022-09-18T08:50:32.924Z,8.50
2022-09-18T08:52:42.396Z,8.50
2022-09-18T08:55:10.205Z,8.50
2022-09-18T08:57:26.948Z,8.40
2022-09-18T08:59:46.666Z,8.40
2022-09-18T09:02:27.766Z,8.40
2022-09-18T09:04:29.990Z,8.40
2022-09-18T09:06:59.299Z,8.50
2022-09-18T09:09:21.482Z,8.50
2022-09-18T09:11:45.538Z,8.50
2022-09-18T09:14:02.172Z,8.70
2022-09-18T09:16:40.346Z,8.80
2022-09-18T09:18:55.649Z,8.70
2022-09-18T09:21:02.206Z,8.70
2022-09-18T09:23:20.209Z,8.60
2022-09-18T09:25:34.411Z,8.60
2022-09-18T09:27:41.446Z,8.70
2022-09-18T09:29:45.318Z,8.70
2022-09-18T09:31:51.315Z,8.80
2022-09-18T09:34:22.611Z,8.80
2022-09-18T09:36:29.601Z,8.80
2022-09-18T09:38:57.291Z,8.80
2022-09-18T09:41:07.382Z,8.90
2022-09-18T09:43:27.676Z,8.90
2022-09-18T09:45:48.546Z,8.90
2022-09-18T09:48:05.119Z,8.90
2022-09-18T09:50:13.066Z,9.10
2022-09-18T09:52:25.289Z,9.10
2022-09-18T09:54:26.957Z,9.20
2022-09-18T09:56:41.887Z,9.20
2022-09-18T09:58:55.986Z,9.30
2022-09-18T10:01:10.270Z,9.40
2022-09-18T10:03:38.309Z,9.50
2022-09-18T10:06:10.992Z,9.60
2022-09-18T10:08:38.510Z,9.60
2022-09-18T10:10:45.275Z,9.50
2022-09-18T10:12:58.781Z,9.60
2022-09-18T10:15:15.989Z,9.60
2022-09-18T10:17:20.151Z,9.60
2022-09-18T10:19:24.563Z,9.70
2022-09-18T10:21:29.005Z,9.70
2022-09-18T10:23:39.145Z,9.70
2022-09-18T10:25:52.286Z,9.70
2022-09-18T10:27:53.962Z,9.80
2022-09-18T10:29:55.873Z,9.80
2022-09-18T10:32:00.184Z,9.80
2022-09-18T10:34:01.790Z,9.90
2022-09-18T10:36:09.709Z,10.00
2022-09-18T10:38:32.749Z,10.20
2022-09-18T10:40:38.419Z,10.50
2022-09-18T10:42:41.334Z,10.80
2022-09-18T10:44:50.717Z,11.00
2022-09-18T10:47:00.490Z,11.40
2022-09-18T10:49:23.938Z,11.70
2022-09-18T10:51:26.708Z,11.90
2022-09-18T10:53:33.420Z,12.00
2022-09-18T10:55:47.395Z,11.90
2022-09-18T10:57:54.797Z,12.10
2022-09-18T10:59:56.441Z,12.30
2022-09-18T11:02:00.446Z,12.50
2022-09-18T11:04:04.441Z,12.60
2022-09-18T11:06:25.407Z,12.40
2022-09-18T11:08:33.877Z,12.40
2022-09-18T11:10:37.664Z,12.20
2022-09-18T11:12:51.263Z,12.30
2022-09-18T11:15:05.675Z,12.40
2022-09-18T11:17:16.276Z,12.50
2022-09-18T11:19:29.142Z,12.90
2022-09-18T11:21:31.397Z,13.00
2022-09-18T11:23:34.413Z,13.00
2022-09-18T11:25:36.261Z,13.10
2022-09-18T11:28:30.758Z,13.00
2022-09-18T11:30:35.733Z,13.50
2022-09-18T11:32:38.269Z,13.80
2022-09-18T11:34:48.731Z,14.00
2022-09-18T11:37:02.435Z,14.00
2022-09-18T11:39:15.067Z,14.00
2022-09-18T11:41:25.737Z,14.10
2022-09-18T11:43:30.725Z,14.50
2022-09-18T11:46:09.385Z,14.70
2022-09-18T11:48:35.903Z,14.90
2022-09-18T11:50:38.958Z,15.10
2022-09-18T11:53:04.230Z,15.20
2022-09-18T11:55:21.066Z,15.40
2022-09-18T11:57:32.026Z,15.50
2022-09-18T11:59:49.883Z,15.20
2022-09-18T12:02:00.515Z,15.30
2022-09-18T12:04:18.628Z,15.60
2022-09-18T12:06:50.539Z,15.80
2022-09-18T12:09:03.207Z,16.10
2022-09-18T12:11:11.667Z,15.80
2022-09-18T12:13:23.693Z,15.90
2022-09-18T12:15:35.090Z,15.80
2022-09-18T12:17:47.802Z,16.00
2022-09-18T12:19:55.807Z,16.10
2022-09-18T12:22:09.204Z,15.60
2022-09-18T12:24:14.224Z,15.70
2022-09-18T12:26:37.462Z,15.90
2022-09-18T12:29:05.054Z,15.80
2022-09-18T12:31:10.829Z,15.70
2022-09-18T12:33:46.522Z,15.70
2022-09-18T12:36:26.407Z,15.90
2022-09-18T12:38:49.761Z,15.70
2022-09-18T12:41:22.870Z,15.60
2022-09-18T12:43:42.990Z,15.00
2022-09-18T12:46:04.108Z,14.50
2022-09-18T12:48:31.317Z,14.10
2022-09-18T12:50:53.815Z,13.90
2022-09-18T12:53:25.706Z,14.00
2022-09-18T12:55:39.176Z,14.00
2022-09-18T12:57:58.130Z,14.10
2022-09-18T13:00:15.025Z,14.20
2022-09-18T13:02:25.846Z,14.10
2022-09-18T13:04:40.339Z,14.20
2022-09-18T13:06:48.962Z,14.10
2022-09-18T13:09:04.365Z,14.20
2022-09-18T13:11:27.450Z,14.30
2022-09-18T13:13:49.833Z,14.40
2022-09-18T13:15:59.613Z,14.60
2022-09-18T13:18:43.398Z,14.80
2022-09-18T13:20:46.573Z,14.60
2022-09-18T13:22:53.857Z,14.30
2022-09-18T13:24:58.042Z,14.10
2022-09-18T13:27:04.049Z,13.70
2022-09-18T13:29:44.222Z,13.30
2022-09-18T13:31:54.255Z,13.00
2022-09-18T13:34:06.604Z,12.80
2022-09-18T13:36:08.294Z,12.80
2022-09-18T13:38:17.182Z,12.60
2022-09-18T13:40:44.352Z,12.40
2022-09-18T13:42:46.181Z,12.20
2022-09-18T13:44:49.433Z,12.10
2022-09-18T13:46:53.986Z,12.20
2022-09-18T13:48:57.032Z,12.20
2022-09-18T13:51:04.718Z,12.20
2022-09-18T13:53:07.241Z,12.20
2022-09-18T13:55:14.621Z,12.30
2022-09-18T13:57:19.725Z,12.30
2022-09-18T13:59:23.550Z,12.30
2022-09-18T14:01:40.339Z,12.30
2022-09-18T14:03:42.329Z,12.30
2022-09-18T14:05:44.119Z,12.30
2022-09-18T14:07:53.569Z,12.20
2022-09-18T14:09:58.916Z,12.20
2022-09-18T14:12:15.411Z,12.10
2022-09-18T14:14:21.303Z,12.10
2022-09-18T14:16:28.522Z,12.10
2022-09-18T14:18:46.496Z,12.10
2022-09-18T14:20:55.093Z,12.00
2022-09-18T14:22:56.794Z,12.00
2022-09-18T14:25:04.990Z,11.90
2022-09-18T14:27:31.366Z,11.90
2022-09-18T14:29:35.401Z,11.80
2022-09-18T14:31:55.346Z,11.80
2022-09-18T14:34:05.390Z,11.90
2022-09-18T14:36:08.597Z,11.90
2022-09-18T14:38:34.976Z,12.00
2022-09-18T14:40:40.656Z,12.10
2022-09-18T14:42:43.174Z,12.20
2022-09-18T14:44:52.579Z,12.40
2022-09-18T14:47:03.529Z,12.40
2022-09-18T14:49:30.920Z,12.60
2022-09-18T14:51:44.755Z,12.60
2022-09-18T14:53:59.784Z,12.60
2022-09-18T14:56:05.673Z,12.60
2022-09-18T14:58:09.994Z,12.60
2022-09-18T15:00:20.057Z,12.50
2022-09-18T15:02:31.263Z,12.50
2022-09-18T15:04:32.994Z,12.40
2022-09-18T15:06:46.331Z,12.30
2022-09-18T15:08:53.267Z,12.20
2022-09-18T15:10:58.140Z,12.10
2022-09-18T15:13:04.810Z,12.00
2022-09-18T15:15:25.136Z,12.00
2022-09-18T15:17:28.269Z,11.90
2022-09-18T15:19:31.125Z,11.80
2022-09-18T15:21:34.054Z,11.80
2022-09-18T15:23:38.481Z,11.70
2022-09-18T15:25:42.067Z,11.70
2022-09-18T15:27:45.077Z,11.60
2022-09-18T15:30:00.842Z,11.50
2022-09-18T15:32:04.633Z,11.50
2022-09-18T15:34:14.664Z,11.50
2022-09-18T15:36:25.429Z,11.50
2022-09-18T15:38:42.844Z,11.40
2022-09-18T15:40:45.997Z,11.40
2022-09-18T15:43:25.809Z,11.40
2022-09-18T15:45:38.851Z,11.40
2022-09-18T15:47:42.853Z,11.40
2022-09-18T15:49:44.552Z,11.40
2022-09-18T15:51:46.181Z,11.40
2022-09-18T15:54:26.436Z,11.40
2022-09-18T15:56:28.848Z,11.40
2022-09-18T15:58:33.497Z,11.30
2022-09-18T16:00:38.116Z,11.30
2022-09-18T16:02:40.833Z,11.30
2022-09-18T16:04:42.482Z,11.30
2022-09-18T16:07:07.686Z,11.30
2022-09-18T16:09:24.156Z,11.20
2022-09-18T16:11:46.565Z,11.20
2022-09-18T16:13:48.381Z,11.20
2022-09-18T16:16:14.037Z,11.20
2022-09-18T16:18:18.853Z,11.20
2022-09-18T16:20:29.905Z,11.20
2022-09-18T16:22:40.354Z,11.20
2022-09-18T16:24:42.943Z,11.20
2022-09-18T16:26:44.787Z,11.20
2022-09-18T16:28:48.537Z,11.20
2022-09-18T16:30:50.544Z,11.20
2022-09-18T16:33:29.231Z,11.10
2022-09-18T16:35:30.958Z,11.10
2022-09-18T16:37:32.701Z,11.10
2022-09-18T16:39:35.357Z,11.10
2022-09-18T16:41:37.471Z,11.10
2022-09-18T16:43:40.380Z,11.10
2022-09-18T16:45:42.818Z,11.00
2022-09-18T16:47:46.874Z,11.00
2022-09-18T16:49:49.543Z,11.00
2022-09-18T16:51:55.011Z,11.00
2022-09-18T16:53:56.804Z,11.00
2022-09-18T16:55:58.974Z,11.00
2022-09-18T16:58:00.903Z,10.90
2022-09-18T17:00:11.021Z,10.90
2022-09-18T17:02:25.485Z,10.90
2022-09-18T17:04:28.301Z,10.90
2022-09-18T17:06:30.120Z,10.90
2022-09-18T17:08:31.829Z,10.90
2022-09-18T17:10:34.649Z,10.90
2022-09-18T17:12:36.902Z,10.90
2022-09-18T17:14:38.840Z,10.80
2022-09-18T17:16:44.907Z,10.80
2022-09-18T17:18:59.237Z,10.70
2022-09-18T17:21:03.030Z,10.70
2022-09-18T17:23:04.689Z,10.70
2022-09-18T17:25:06.632Z,10.80
2022-09-18T17:27:08.249Z,10.80
2022-09-18T17:29:14.211Z,10.80
2022-09-18T17:31:18.463Z,10.80
2022-09-18T17:33:20.600Z,10.70
2022-09-18T17:35:22.371Z,10.70
2022-09-18T17:37:29.459Z,10.70
2022-09-18T17:39:31.348Z,10.70
2022-09-18T17:41:33.989Z,10.70
2022-09-18T17:43:37.418Z,10.70
2022-09-18T17:45:39.040Z,10.70
2022-09-18T17:47:40.929Z,10.70
2022-09-18T17:49:42.570Z,10.70
2022-09-18T17:51:44.169Z,10.70
2022-09-18T17:53:48.035Z,10.70
2022-09-18T17:55:50.991Z,10.70
2022-09-18T17:57:52.887Z,10.70
2022-09-18T17:59:54.527Z,10.70
2022-09-18T18:01:56.269Z,10.70
2022-09-18T18:03:59.870Z,10.70
2022-09-18T18:06:02.835Z,10.80
2022-09-18T18:08:04.737Z,10.70
2022-09-18T18:10:06.765Z,10.70
2022-09-18T18:12:08.573Z,10.70
2022-09-18T18:14:10.196Z,10.70
2022-09-18T18:16:14.306Z,10.80
2022-09-18T18:18:17.154Z,10.80
2022-09-18T18:20:18.818Z,10.80
2022-09-18T18:22:21.021Z,10.80
2022-09-18T18:24:23.441Z,10.70
2022-09-18T18:26:27.889Z,10.70
2022-09-18T18:28:31.755Z,10.60
2022-09-18T18:30:33.365Z,10.60
2022-09-18T18:32:35.209Z,10.50
2022-09-18T18:34:37.153Z,10.50
2022-09-18T18:36:40.448Z,10.50
2022-09-18T18:38:44.103Z,10.50
2022-09-18T18:40:45.864Z,10.50
2022-09-18T18:42:48.188Z,10.40
2022-09-18T18:44:49.860Z,10.40
2022-09-18T18:46:51.652Z,10.30
2022-09-18T18:49:01.674Z,10.20
2022-09-18T18:51:05.640Z,10.10
2022-09-18T18:53:07.680Z,10.10
2022-09-18T18:55:09.997Z,10.10
2022-09-18T18:57:11.777Z,10.10
2022-09-18T18:59:16.107Z,10.10
2022-09-18T19:01:18.365Z,10.20
2022-09-18T19:03:20.297Z,10.20
2022-09-18T19:05:30.214Z,10.20
2022-09-18T19:07:32.842Z,10.20
2022-09-18T19:09:34.490Z,10.20
2022-09-18T19:11:50.764Z,10.20
2022-09-18T19:13:56.687Z,10.30
2022-09-18T19:16:03.075Z,10.30
2022-09-18T19:18:04.692Z,10.30
2022-09-18T19:20:06.977Z,10.40
2022-09-18T19:22:13.729Z,10.40
2022-09-18T19:24:18.423Z,10.50
2022-09-18T19:26:26.322Z,10.40
2022-09-18T19:28:29.217Z,10.40
2022-09-18T19:30:30.922Z,10.30
2022-09-18T19:32:32.528Z,10.20
2022-09-18T19:34:34.257Z,10.20
2022-09-18T19:36:36.628Z,10.20
2022-09-18T19:38:38.340Z,10.20
2022-09-18T19:40:40.279Z,10.20
2022-09-18T19:42:48.162Z,10.20
2022-09-18T19:44:54.250Z,10.20
2022-09-18T19:46:59.508Z,10.30
2022-09-18T19:49:01.642Z,10.30
2022-09-18T19:51:03.439Z,10.30
2022-09-18T19:53:06.109Z,10.30
2022-09-18T19:55:15.788Z,10.40
2022-09-18T19:57:18.882Z,10.40
2022-09-18T19:59:20.552Z,10.40
2022-09-18T20:01:22.168Z,10.40
2022-09-18T20:03:23.920Z,10.30
2022-09-18T20:05:26.941Z,10.40
2022-09-18T20:07:28.718Z,10.30
2022-09-18T20:09:30.634Z,10.30
2022-09-18T20:11:32.663Z,10.30
2022-09-18T20:13:34.303Z,10.20
2022-09-18T20:15:36.057Z,10.20
2022-09-18T20:17:38.204Z,10.10
2022-09-18T20:19:39.859Z,10.10
2022-09-18T20:21:42.218Z,10.00
2022-09-18T20:23:44.597Z,9.90
2022-09-18T20:25:46.429Z,9.80
2022-09-18T20:27:48.651Z,9.60
2022-09-18T20:29:50.865Z,9.50
2022-09-18T20:31:52.631Z,9.40
2022-09-18T20:33:59.255Z,9.20
2022-09-18T20:36:01.230Z,9.10
2022-09-18T20:38:05.422Z,9.00
2022-09-18T20:40:12.417Z,8.80
2022-09-18T20:42:14.095Z,8.80
2022-09-18T20:44:16.127Z,8.70
2022-09-18T20:46:17.996Z,8.60
2022-09-18T20:48:27.356Z,8.50
2022-09-18T20:50:28.996Z,8.40
2022-09-18T20:52:31.132Z,8.40
2022-09-18T20:54:33.517Z,8.20
2022-09-18T20:56:41.845Z,8.20
2022-09-18T20:58:43.464Z,8.20
2022-09-18T21:00:46.677Z,8.20
2022-09-18T21:02:52.178Z,8.10
2022-09-18T21:04:54.559Z,8.10
2022-09-18T21:06:58.912Z,8.10
2022-09-18T21:09:06.236Z,8.10
2022-09-18T21:11:09.006Z,8.10
2022-09-18T21:13:12.794Z,8.00
2022-09-18T21:15:18.252Z,8.00
2022-09-18T21:17:20.077Z,8.00
2022-09-18T21:19:21.749Z,8.00
2022-09-18T21:21:25.891Z,8.00
2022-09-18T21:23:46.134Z,8.00
2022-09-18T21:25:47.788Z,8.10
2022-09-18T21:27:54.287Z,8.10
2022-09-18T21:29:56.547Z,8.10
2022-09-18T21:31:59.631Z,8.10
2022-09-18T21:34:04.176Z,8.10
2022-09-18T21:36:06.065Z,8.10
2022-09-18T21:38:11.240Z,8.10
2022-09-18T21:40:14.601Z,8.10
2022-09-18T21:42:16.912Z,8.10
2022-09-18T21:44:29.778Z,8.10
2022-09-18T21:46:31.414Z,8.10
2022-09-18T21:48:34.240Z,8.10
2022-09-18T21:50:36.496Z,8.10
2022-09-18T21:52:38.268Z,8.10
2022-09-18T21:54:40.079Z,8.10
2022-09-18T21:56:43.061Z,8.20
2022-09-18T21:58:46.141Z,8.20
2022-09-18T22:00:47.878Z,8.20
2022-09-18T22:02:53.283Z,8.20
2022-09-18T22:04:55.629Z,8.20
2022-09-18T22:07:00.183Z,8.20
2022-09-18T22:09:07.143Z,8.30
2022-09-18T22:11:08.825Z,8.30
2022-09-18T22:13:10.837Z,8.30
2022-09-18T22:15:12.592Z,8.30
2022-09-18T22:17:15.306Z,8.30
2022-09-18T22:19:18.888Z,8.30
2022-09-18T22:21:27.736Z,8.30
2022-09-18T22:23:29.697Z,8.30
2022-09-18T22:25:31.668Z,8.30
2022-09-18T22:27:33.617Z,8.30
2022-09-18T22:29:37.513Z,8.30
2022-09-18T22:31:39.441Z,8.30
2022-09-18T22:33:41.157Z,8.30
2022-09-18T22:35:42.804Z,8.30
2022-09-18T22:37:44.425Z,8.30
2022-09-18T22:39:47.090Z,8.30
2022-09-18T22:41:50.492Z,8.20
2022-09-18T22:43:56.960Z,8.20
2022-09-18T22:46:13.453Z,8.20
2022-09-18T22:48:15.165Z,8.10
2022-09-18T22:50:16.950Z,8.10
2022-09-18T22:52:18.764Z,8.10
2022-09-18T22:54:25.926Z,8.10
2022-09-18T22:56:28.880Z,8.10
2022-09-18T22:58:30.624Z,8.10
2022-09-18T23:00:32.637Z,8.10
2022-09-18T23:02:34.422Z,8.00
2022-09-18T23:04:36.656Z,8.00
2022-09-18T23:06:38.690Z,8.00
2022-09-18T23:08:40.443Z,8.00
2022-09-18T23:10:42.772Z,8.00
2022-09-18T23:12:44.617Z,8.00
2022-09-18T23:14:46.417Z,8.00
2022-09-18T23:16:49.115Z,7.90
2022-09-18T23:18:53.262Z,7.80
2022-09-18T23:21:00.775Z,7.60
2022-09-18T23:23:02.388Z,7.50
2022-09-18T23:25:04.284Z,7.40
2022-09-18T23:27:06.002Z,7.30
2022-09-18T23:29:10.763Z,7.20
2022-09-18T23:31:15.451Z,7.20
2022-09-18T23:33:17.195Z,7.10
2022-09-18T23:35:19.391Z,7.00
2022-09-18T23:37:21.024Z,7.00
2022-09-18T23:39:32.562Z,6.90
2022-09-18T23:41:34.609Z,6.80
2022-09-18T23:43:39.057Z,6.80
2022-09-18T23:45:40.693Z,6.70
2022-09-18T23:47:42.356Z,6.70
2022-09-18T23:49:43.980Z,6.70
2022-09-18T23:51:48.550Z,6.70
2022-09-18T23:53:50.413Z,6.80
2022-09-18T23:55:52.056Z,6.80
2022-09-18T23:57:53.921Z,6.80
2022-09-18T23:59:58.617Z,6.80
